sensor_id;sensor_type;location;lat;lon;timestamp;temperature;humidity
18450;DHT22;9354;50.194;7.690;2022-10-31T00:00:47;13.20;99.90
18450;DHT22;9354;50.194;7.690;2022-10-31T00:03:15;13.10;99.90
18450;DHT22;9354;50.194;7.690;2022-10-31T00:05:43;13.10;99.90
18450;DHT22;9354;50.194;7.690;2022-10-31T00:08:11;13.10;99.90
18450;DHT22;9354;50.194;7.690;2022-10-31T00:10:39;13.10;99.90
18450;DHT22;9354;50.194;7.690;2022-10-31T00:13:06;13.10;99.90
18450;DHT22;9354;50.194;7.690;2022-10-31T00:15:36;13.10;99.90
18450;DHT22;9354;50.194;7.690;2022-10-31T00:18:04;13.10;99.90
18450;DHT22;9354;50.194;7.690;2022-10-31T00:20:32;13.10;99.90
18450;DHT22;9354;50.194;7.690;2022-10-31T00:23:00;13.10;99.90
18450;DHT22;9354;50.194;7.690;2022-10-31T00:25:29;13.10;99.90
18450;DHT22;9354;50.194;7.690;2022-10-31T00:27:59;13.10;99.90
18450;DHT22;9354;50.194;7.690;2022-10-31T00:30:27;13.00;99.90
18450;DHT22;9354;50.194;7.690;2022-10-31T00:32:55;13.10;99.90
18450;DHT22;9354;50.194;7.690;2022-10-31T00:35:23;13.00;99.90
18450;DHT22;9354;50.194;7.690;2022-10-31T00:37:51;13.00;99.90
18450;DHT22;9354;50.194;7.690;2022-10-31T00:40:19;13.00;99.90
18450;DHT22;9354;50.194;7.690;2022-10-31T00:42:46;13.00;99.90
18450;DHT22;9354;50.194;7.690;2022-10-31T00:45:14;13.00;99.90
18450;DHT22;9354;50.194;7.690;2022-10-31T00:47:41;12.90;99.90
18450;DHT22;9354;50.194;7.690;2022-10-31T00:50:10;12.90;99.90
18450;DHT22;9354;50.194;7.690;2022-10-31T00:52:37;12.90;99.90
18450;DHT22;9354;50.194;7.690;2022-10-31T00:55:05;12.90;99.90
18450;DHT22;9354;50.194;7.690;2022-10-31T00:57:32;12.90;99.90
18450;DHT22;9354;50.194;7.690;2022-10-31T01:00:00;12.90;99.90
18450;DHT22;9354;50.194;7.690;2022-10-31T01:02:27;12.90;99.90
18450;DHT22;9354;50.194;7.690;2022-10-31T01:04:54;12.90;99.90
18450;DHT22;9354;50.194;7.690;2022-10-31T01:07:23;12.90;99.90
18450;DHT22;9354;50.194;7.690;2022-10-31T01:09:51;12.90;99.90
18450;DHT22;9354;50.194;7.690;2022-10-31T01:12:18;12.90;99.90
18450;DHT22;9354;50.194;7.690;2022-10-31T01:14:45;12.90;99.90
18450;DHT22;9354;50.194;7.690;2022-10-31T01:17:13;12.90;99.90
18450;DHT22;9354;50.194;7.690;2022-10-31T01:19:41;12.90;99.90
18450;DHT22;9354;50.194;7.690;2022-10-31T01:22:08;12.90;99.90
18450;DHT22;9354;50.194;7.690;2022-10-31T01:24:37;12.90;99.90
18450;DHT22;9354;50.194;7.690;2022-10-31T01:27:04;12.90;99.90
18450;DHT22;9354;50.194;7.690;2022-10-31T01:29:32;12.90;99.90
18450;DHT22;9354;50.194;7.690;2022-10-31T01:31:59;12.80;99.90
18450;DHT22;9354;50.194;7.690;2022-10-31T01:34:26;12.80;99.90
18450;DHT22;9354;50.194;7.690;2022-10-31T01:36:54;12.80;99.90
18450;DHT22;9354;50.194;7.690;2022-10-31T01:39:21;12.70;99.90
18450;DHT22;9354;50.194;7.690;2022-10-31T01:41:52;12.70;99.90
18450;DHT22;9354;50.194;7.690;2022-10-31T01:44:50;12.80;99.90
18450;DHT22;9354;50.194;7.690;2022-10-31T01:47:25;12.80;99.90
18450;DHT22;9354;50.194;7.690;2022-10-31T01:49:57;12.80;99.90
18450;DHT22;9354;50.194;7.690;2022-10-31T01:52:28;12.90;99.90
18450;DHT22;9354;50.194;7.690;2022-10-31T01:55:00;12.90;99.90
18450;DHT22;9354;50.194;7.690;2022-10-31T01:57:30;12.90;99.90
18450;DHT22;9354;50.194;7.690;2022-10-31T02:00:04;12.90;99.90
18450;DHT22;9354;50.194;7.690;2022-10-31T02:02:32;12.80;99.90
18450;DHT22;9354;50.194;7.690;2022-10-31T02:05:00;12.80;99.90
18450;DHT22;9354;50.194;7.690;2022-10-31T02:07:34;12.80;99.90
18450;DHT22;9354;50.194;7.690;2022-10-31T02:10:04;12.80;99.90
18450;DHT22;9354;50.194;7.690;2022-10-31T02:12:34;12.80;99.90
18450;DHT22;9354;50.194;7.690;2022-10-31T02:15:05;12.80;99.90
18450;DHT22;9354;50.194;7.690;2022-10-31T02:17:33;12.80;99.90
18450;DHT22;9354;50.194;7.690;2022-10-31T02:20:09;12.80;99.90
18450;DHT22;9354;50.194;7.690;2022-10-31T02:22:48;12.70;99.90
18450;DHT22;9354;50.194;7.690;2022-10-31T02:25:35;12.80;99.90
18450;DHT22;9354;50.194;7.690;2022-10-31T02:28:27;12.80;99.90
18450;DHT22;9354;50.194;7.690;2022-10-31T02:31:15;12.80;99.90
18450;DHT22;9354;50.194;7.690;2022-10-31T02:33:50;12.80;99.90
18450;DHT22;9354;50.194;7.690;2022-10-31T02:36:24;12.80;99.90
18450;DHT22;9354;50.194;7.690;2022-10-31T02:39:00;12.80;99.90
18450;DHT22;9354;50.194;7.690;2022-10-31T02:41:34;12.80;99.90
18450;DHT22;9354;50.194;7.690;2022-10-31T02:44:09;12.70;99.90
18450;DHT22;9354;50.194;7.690;2022-10-31T02:46:45;12.70;99.90
18450;DHT22;9354;50.194;7.690;2022-10-31T02:49:21;12.70;99.90
18450;DHT22;9354;50.194;7.690;2022-10-31T02:51:49;12.70;99.90
18450;DHT22;9354;50.194;7.690;2022-10-31T02:54:19;12.70;99.90
18450;DHT22;9354;50.194;7.690;2022-10-31T02:56:49;12.60;99.90
18450;DHT22;9354;50.194;7.690;2022-10-31T02:59:17;12.60;99.90
18450;DHT22;9354;50.194;7.690;2022-10-31T03:02:06;12.50;99.90
18450;DHT22;9354;50.194;7.690;2022-10-31T03:05:03;12.50;99.90
18450;DHT22;9354;50.194;7.690;2022-10-31T03:07:41;12.50;99.90
18450;DHT22;9354;50.194;7.690;2022-10-31T03:10:16;12.50;99.90
18450;DHT22;9354;50.194;7.690;2022-10-31T03:12:50;12.50;99.90
18450;DHT22;9354;50.194;7.690;2022-10-31T03:15:24;12.50;99.90
18450;DHT22;9354;50.194;7.690;2022-10-31T03:17:56;12.50;99.90
18450;DHT22;9354;50.194;7.690;2022-10-31T03:20:29;12.50;99.90
18450;DHT22;9354;50.194;7.690;2022-10-31T03:22:59;12.50;99.90
18450;DHT22;9354;50.194;7.690;2022-10-31T03:25:29;12.50;99.90
18450;DHT22;9354;50.194;7.690;2022-10-31T03:27:59;12.50;99.90
18450;DHT22;9354;50.194;7.690;2022-10-31T03:30:29;12.50;99.90
18450;DHT22;9354;50.194;7.690;2022-10-31T03:33:00;12.50;99.90
18450;DHT22;9354;50.194;7.690;2022-10-31T03:35:30;12.50;99.90
18450;DHT22;9354;50.194;7.690;2022-10-31T03:38:00;12.50;99.90
18450;DHT22;9354;50.194;7.690;2022-10-31T03:40:29;12.50;99.90
18450;DHT22;9354;50.194;7.690;2022-10-31T03:43:00;12.50;99.90
18450;DHT22;9354;50.194;7.690;2022-10-31T03:45:31;12.50;99.90
18450;DHT22;9354;50.194;7.690;2022-10-31T03:48:00;12.50;99.90
18450;DHT22;9354;50.194;7.690;2022-10-31T03:50:32;12.50;99.90
18450;DHT22;9354;50.194;7.690;2022-10-31T03:53:06;12.50;99.90
18450;DHT22;9354;50.194;7.690;2022-10-31T03:55:40;12.50;99.90
18450;DHT22;9354;50.194;7.690;2022-10-31T03:58:12;12.50;99.90
18450;DHT22;9354;50.194;7.690;2022-10-31T04:00:44;12.40;99.90
18450;DHT22;9354;50.194;7.690;2022-10-31T04:03:17;12.40;99.90
18450;DHT22;9354;50.194;7.690;2022-10-31T04:05:47;12.40;99.90
18450;DHT22;9354;50.194;7.690;2022-10-31T04:08:16;12.50;99.90
18450;DHT22;9354;50.194;7.690;2022-10-31T04:10:47;12.50;99.90
18450;DHT22;9354;50.194;7.690;2022-10-31T04:13:19;12.50;99.90
18450;DHT22;9354;50.194;7.690;2022-10-31T04:15:48;12.50;99.90
18450;DHT22;9354;50.194;7.690;2022-10-31T04:18:17;12.50;99.90
18450;DHT22;9354;50.194;7.690;2022-10-31T04:20:46;12.50;99.90
18450;DHT22;9354;50.194;7.690;2022-10-31T04:23:19;12.50;99.90
18450;DHT22;9354;50.194;7.690;2022-10-31T04:25:46;12.50;99.90
18450;DHT22;9354;50.194;7.690;2022-10-31T04:28:14;12.50;99.90
18450;DHT22;9354;50.194;7.690;2022-10-31T04:30:41;12.50;99.90
18450;DHT22;9354;50.194;7.690;2022-10-31T04:33:09;12.50;99.90
18450;DHT22;9354;50.194;7.690;2022-10-31T04:35:37;12.50;99.90
18450;DHT22;9354;50.194;7.690;2022-10-31T04:38:05;12.50;99.90
18450;DHT22;9354;50.194;7.690;2022-10-31T04:40:32;12.50;99.90
18450;DHT22;9354;50.194;7.690;2022-10-31T04:43:00;12.50;99.90
18450;DHT22;9354;50.194;7.690;2022-10-31T04:45:27;12.50;99.90
18450;DHT22;9354;50.194;7.690;2022-10-31T04:47:54;12.50;99.90
18450;DHT22;9354;50.194;7.690;2022-10-31T04:50:22;12.50;99.90
18450;DHT22;9354;50.194;7.690;2022-10-31T04:52:50;12.50;99.90
18450;DHT22;9354;50.194;7.690;2022-10-31T04:55:18;12.50;99.90
18450;DHT22;9354;50.194;7.690;2022-10-31T04:57:47;12.40;99.90
18450;DHT22;9354;50.194;7.690;2022-10-31T05:00:16;12.30;99.90
18450;DHT22;9354;50.194;7.690;2022-10-31T05:02:44;12.30;99.90
18450;DHT22;9354;50.194;7.690;2022-10-31T05:05:12;12.30;99.90
18450;DHT22;9354;50.194;7.690;2022-10-31T05:07:41;12.20;99.90
18450;DHT22;9354;50.194;7.690;2022-10-31T05:10:11;12.20;99.90
18450;DHT22;9354;50.194;7.690;2022-10-31T05:12:45;12.20;99.90
18450;DHT22;9354;50.194;7.690;2022-10-31T05:15:14;12.20;99.90
18450;DHT22;9354;50.194;7.690;2022-10-31T05:17:42;12.20;99.90
18450;DHT22;9354;50.194;7.690;2022-10-31T05:20:10;12.20;99.90
18450;DHT22;9354;50.194;7.690;2022-10-31T05:22:41;12.20;99.90
18450;DHT22;9354;50.194;7.690;2022-10-31T05:25:11;12.20;99.90
18450;DHT22;9354;50.194;7.690;2022-10-31T05:27:39;12.10;99.90
18450;DHT22;9354;50.194;7.690;2022-10-31T05:30:08;12.00;99.90
18450;DHT22;9354;50.194;7.690;2022-10-31T05:32:39;12.00;99.90
18450;DHT22;9354;50.194;7.690;2022-10-31T05:35:07;12.00;99.90
18450;DHT22;9354;50.194;7.690;2022-10-31T05:37:35;11.90;99.90
18450;DHT22;9354;50.194;7.690;2022-10-31T05:40:03;11.90;99.90
18450;DHT22;9354;50.194;7.690;2022-10-31T05:42:32;11.90;99.90
18450;DHT22;9354;50.194;7.690;2022-10-31T05:45:00;11.90;99.90
18450;DHT22;9354;50.194;7.690;2022-10-31T05:47:30;11.90;99.90
18450;DHT22;9354;50.194;7.690;2022-10-31T05:49:58;11.80;99.90
18450;DHT22;9354;50.194;7.690;2022-10-31T05:52:25;11.80;99.90
18450;DHT22;9354;50.194;7.690;2022-10-31T05:54:52;11.80;99.90
18450;DHT22;9354;50.194;7.690;2022-10-31T05:57:20;11.80;99.90
18450;DHT22;9354;50.194;7.690;2022-10-31T05:59:48;11.80;99.90
18450;DHT22;9354;50.194;7.690;2022-10-31T06:02:18;11.90;99.90
18450;DHT22;9354;50.194;7.690;2022-10-31T06:04:46;11.80;99.90
18450;DHT22;9354;50.194;7.690;2022-10-31T06:07:13;11.80;99.90
18450;DHT22;9354;50.194;7.690;2022-10-31T06:09:40;11.80;99.90
18450;DHT22;9354;50.194;7.690;2022-10-31T06:12:08;11.80;99.90
18450;DHT22;9354;50.194;7.690;2022-10-31T06:14:35;11.80;99.90
18450;DHT22;9354;50.194;7.690;2022-10-31T06:17:04;11.80;99.90
18450;DHT22;9354;50.194;7.690;2022-10-31T06:19:31;11.80;99.90
18450;DHT22;9354;50.194;7.690;2022-10-31T06:21:59;11.80;99.90
18450;DHT22;9354;50.194;7.690;2022-10-31T06:24:26;11.80;99.90
18450;DHT22;9354;50.194;7.690;2022-10-31T06:26:54;11.80;99.90
18450;DHT22;9354;50.194;7.690;2022-10-31T06:29:21;11.80;99.90
18450;DHT22;9354;50.194;7.690;2022-10-31T06:31:51;11.80;99.90
18450;DHT22;9354;50.194;7.690;2022-10-31T06:34:19;11.80;99.90
18450;DHT22;9354;50.194;7.690;2022-10-31T06:36:47;11.80;99.90
18450;DHT22;9354;50.194;7.690;2022-10-31T06:39:14;11.80;99.90
18450;DHT22;9354;50.194;7.690;2022-10-31T06:41:42;11.80;99.90
18450;DHT22;9354;50.194;7.690;2022-10-31T06:44:09;11.80;99.90
18450;DHT22;9354;50.194;7.690;2022-10-31T06:46:37;11.70;99.90
18450;DHT22;9354;50.194;7.690;2022-10-31T06:49:04;11.70;99.90
18450;DHT22;9354;50.194;7.690;2022-10-31T06:51:33;11.70;99.90
18450;DHT22;9354;50.194;7.690;2022-10-31T06:54:00;11.70;99.90
18450;DHT22;9354;50.194;7.690;2022-10-31T06:56:29;11.70;99.90
18450;DHT22;9354;50.194;7.690;2022-10-31T06:58:56;11.70;99.90
18450;DHT22;9354;50.194;7.690;2022-10-31T07:01:24;11.70;99.90
18450;DHT22;9354;50.194;7.690;2022-10-31T07:03:51;11.70;99.90
18450;DHT22;9354;50.194;7.690;2022-10-31T07:06:19;11.80;99.90
18450;DHT22;9354;50.194;7.690;2022-10-31T07:08:47;11.80;99.90
18450;DHT22;9354;50.194;7.690;2022-10-31T07:11:15;11.80;99.90
18450;DHT22;9354;50.194;7.690;2022-10-31T07:13:42;11.90;99.90
18450;DHT22;9354;50.194;7.690;2022-10-31T07:16:10;12.00;99.90
18450;DHT22;9354;50.194;7.690;2022-10-31T07:18:39;12.10;99.90
18450;DHT22;9354;50.194;7.690;2022-10-31T07:21:06;12.20;99.90
18450;DHT22;9354;50.194;7.690;2022-10-31T07:23:33;12.20;99.90
18450;DHT22;9354;50.194;7.690;2022-10-31T07:26:03;12.30;99.90
18450;DHT22;9354;50.194;7.690;2022-10-31T07:28:30;12.40;99.90
18450;DHT22;9354;50.194;7.690;2022-10-31T07:30:58;12.40;99.90
18450;DHT22;9354;50.194;7.690;2022-10-31T07:33:25;12.50;99.90
18450;DHT22;9354;50.194;7.690;2022-10-31T07:35:53;12.60;99.90
18450;DHT22;9354;50.194;7.690;2022-10-31T07:38:20;12.60;99.90
18450;DHT22;9354;50.194;7.690;2022-10-31T07:40:50;12.70;99.90
18450;DHT22;9354;50.194;7.690;2022-10-31T07:43:20;12.70;99.90
18450;DHT22;9354;50.194;7.690;2022-10-31T07:45:52;12.70;99.90
18450;DHT22;9354;50.194;7.690;2022-10-31T07:48:19;12.70;99.90
18450;DHT22;9354;50.194;7.690;2022-10-31T07:50:47;12.70;99.90
18450;DHT22;9354;50.194;7.690;2022-10-31T07:53:15;12.80;99.90
18450;DHT22;9354;50.194;7.690;2022-10-31T07:55:43;12.80;99.90
18450;DHT22;9354;50.194;7.690;2022-10-31T07:58:12;12.90;99.90
18450;DHT22;9354;50.194;7.690;2022-10-31T08:00:42;12.90;99.90
18450;DHT22;9354;50.194;7.690;2022-10-31T08:03:11;12.90;99.90
18450;DHT22;9354;50.194;7.690;2022-10-31T08:05:39;13.00;99.90
18450;DHT22;9354;50.194;7.690;2022-10-31T08:08:07;13.00;99.90
18450;DHT22;9354;50.194;7.690;2022-10-31T08:10:35;13.10;99.90
18450;DHT22;9354;50.194;7.690;2022-10-31T08:13:05;13.10;99.90
18450;DHT22;9354;50.194;7.690;2022-10-31T08:15:33;13.20;99.90
18450;DHT22;9354;50.194;7.690;2022-10-31T08:18:05;13.30;99.90
18450;DHT22;9354;50.194;7.690;2022-10-31T08:20:33;13.30;99.90
18450;DHT22;9354;50.194;7.690;2022-10-31T08:23:02;13.50;99.90
18450;DHT22;9354;50.194;7.690;2022-10-31T08:25:31;13.60;99.90
18450;DHT22;9354;50.194;7.690;2022-10-31T08:27:59;13.70;99.90
18450;DHT22;9354;50.194;7.690;2022-10-31T08:30:28;13.80;99.90
18450;DHT22;9354;50.194;7.690;2022-10-31T08:33:00;13.90;99.90
18450;DHT22;9354;50.194;7.690;2022-10-31T08:35:29;13.80;99.90
18450;DHT22;9354;50.194;7.690;2022-10-31T08:37:56;13.90;99.90
18450;DHT22;9354;50.194;7.690;2022-10-31T08:40:25;13.90;99.90
18450;DHT22;9354;50.194;7.690;2022-10-31T08:42:58;14.00;99.90
18450;DHT22;9354;50.194;7.690;2022-10-31T08:45:26;14.00;99.90
18450;DHT22;9354;50.194;7.690;2022-10-31T08:47:57;14.10;99.90
18450;DHT22;9354;50.194;7.690;2022-10-31T08:50:24;14.20;99.90
18450;DHT22;9354;50.194;7.690;2022-10-31T08:52:53;14.30;99.90
18450;DHT22;9354;50.194;7.690;2022-10-31T08:55:21;14.40;99.90
18450;DHT22;9354;50.194;7.690;2022-10-31T08:57:53;14.40;99.90
18450;DHT22;9354;50.194;7.690;2022-10-31T09:00:21;14.50;99.90
18450;DHT22;9354;50.194;7.690;2022-10-31T09:02:54;14.60;99.90
18450;DHT22;9354;50.194;7.690;2022-10-31T09:05:21;14.70;99.90
18450;DHT22;9354;50.194;7.690;2022-10-31T09:07:48;14.80;99.90
18450;DHT22;9354;50.194;7.690;2022-10-31T09:10:17;14.90;99.90
18450;DHT22;9354;50.194;7.690;2022-10-31T09:12:44;15.00;99.90
18450;DHT22;9354;50.194;7.690;2022-10-31T09:15:12;15.00;99.90
18450;DHT22;9354;50.194;7.690;2022-10-31T09:17:39;15.10;99.90
18450;DHT22;9354;50.194;7.690;2022-10-31T09:20:12;15.10;99.90
18450;DHT22;9354;50.194;7.690;2022-10-31T09:22:40;15.10;99.90
18450;DHT22;9354;50.194;7.690;2022-10-31T09:25:08;15.10;99.90
18450;DHT22;9354;50.194;7.690;2022-10-31T09:27:36;15.20;99.90
18450;DHT22;9354;50.194;7.690;2022-10-31T09:30:05;15.20;99.90
18450;DHT22;9354;50.194;7.690;2022-10-31T09:32:33;15.20;99.90
18450;DHT22;9354;50.194;7.690;2022-10-31T09:35:00;15.20;99.90
18450;DHT22;9354;50.194;7.690;2022-10-31T09:37:27;15.20;99.90
18450;DHT22;9354;50.194;7.690;2022-10-31T09:39:55;15.20;99.90
18450;DHT22;9354;50.194;7.690;2022-10-31T09:42:54;15.20;99.90
18450;DHT22;9354;50.194;7.690;2022-10-31T09:45:27;15.20;99.90
18450;DHT22;9354;50.194;7.690;2022-10-31T09:48:09;15.20;99.90
18450;DHT22;9354;50.194;7.690;2022-10-31T09:50:42;15.30;99.90
18450;DHT22;9354;50.194;7.690;2022-10-31T09:53:21;15.30;99.90
18450;DHT22;9354;50.194;7.690;2022-10-31T09:55:51;15.30;99.90
18450;DHT22;9354;50.194;7.690;2022-10-31T09:58:23;15.30;99.90
18450;DHT22;9354;50.194;7.690;2022-10-31T10:00:52;15.30;99.90
18450;DHT22;9354;50.194;7.690;2022-10-31T10:03:28;15.30;99.90
18450;DHT22;9354;50.194;7.690;2022-10-31T10:06:01;15.30;99.90
18450;DHT22;9354;50.194;7.690;2022-10-31T10:08:32;15.40;99.90
18450;DHT22;9354;50.194;7.690;2022-10-31T10:11:08;15.30;99.90
18450;DHT22;9354;50.194;7.690;2022-10-31T10:13:55;15.30;99.90
18450;DHT22;9354;50.194;7.690;2022-10-31T10:16:34;15.30;99.90
18450;DHT22;9354;50.194;7.690;2022-10-31T10:19:14;15.30;99.90
18450;DHT22;9354;50.194;7.690;2022-10-31T10:21:53;15.30;99.90
18450;DHT22;9354;50.194;7.690;2022-10-31T10:24:33;15.30;99.90
18450;DHT22;9354;50.194;7.690;2022-10-31T10:27:08;15.30;99.90
18450;DHT22;9354;50.194;7.690;2022-10-31T10:29:44;15.30;99.90
18450;DHT22;9354;50.194;7.690;2022-10-31T10:32:18;15.20;99.90
18450;DHT22;9354;50.194;7.690;2022-10-31T10:34:49;15.20;99.90
18450;DHT22;9354;50.194;7.690;2022-10-31T10:37:24;15.20;99.90
18450;DHT22;9354;50.194;7.690;2022-10-31T10:39:56;15.20;99.90
18450;DHT22;9354;50.194;7.690;2022-10-31T10:42:27;15.30;99.90
18450;DHT22;9354;50.194;7.690;2022-10-31T10:45:18;15.30;99.90
18450;DHT22;9354;50.194;7.690;2022-10-31T10:48:08;15.30;99.90
18450;DHT22;9354;50.194;7.690;2022-10-31T10:50:41;15.30;99.90
18450;DHT22;9354;50.194;7.690;2022-10-31T10:53:23;15.40;99.90
18450;DHT22;9354;50.194;7.690;2022-10-31T10:56:02;15.40;99.90
18450;DHT22;9354;50.194;7.690;2022-10-31T10:58:33;15.40;99.90
18450;DHT22;9354;50.194;7.690;2022-10-31T11:01:10;15.40;99.90
18450;DHT22;9354;50.194;7.690;2022-10-31T11:03:39;15.50;99.90
18450;DHT22;9354;50.194;7.690;2022-10-31T11:06:17;15.50;99.90
18450;DHT22;9354;50.194;7.690;2022-10-31T11:08:48;15.50;99.90
18450;DHT22;9354;50.194;7.690;2022-10-31T11:11:24;15.60;99.90
18450;DHT22;9354;50.194;7.690;2022-10-31T11:13:57;15.60;99.90
18450;DHT22;9354;50.194;7.690;2022-10-31T11:16:33;15.60;99.90
18450;DHT22;9354;50.194;7.690;2022-10-31T11:19:12;15.60;99.90
18450;DHT22;9354;50.194;7.690;2022-10-31T11:21:41;15.60;99.90
18450;DHT22;9354;50.194;7.690;2022-10-31T11:24:16;15.60;99.90
18450;DHT22;9354;50.194;7.690;2022-10-31T11:26:46;15.60;99.90
18450;DHT22;9354;50.194;7.690;2022-10-31T11:29:16;15.60;99.90
18450;DHT22;9354;50.194;7.690;2022-10-31T11:31:46;15.60;99.90
18450;DHT22;9354;50.194;7.690;2022-10-31T11:34:19;15.70;99.90
18450;DHT22;9354;50.194;7.690;2022-10-31T11:36:50;15.70;99.90
18450;DHT22;9354;50.194;7.690;2022-10-31T11:39:20;15.70;99.90
18450;DHT22;9354;50.194;7.690;2022-10-31T11:41:48;15.80;99.90
18450;DHT22;9354;50.194;7.690;2022-10-31T11:44:18;15.80;99.90
18450;DHT22;9354;50.194;7.690;2022-10-31T11:46:49;15.80;99.90
18450;DHT22;9354;50.194;7.690;2022-10-31T11:49:19;15.90;99.90
18450;DHT22;9354;50.194;7.690;2022-10-31T11:51:49;15.90;99.90
18450;DHT22;9354;50.194;7.690;2022-10-31T11:54:22;15.90;99.90
18450;DHT22;9354;50.194;7.690;2022-10-31T11:56:50;15.90;99.90
18450;DHT22;9354;50.194;7.690;2022-10-31T11:59:23;15.90;99.90
18450;DHT22;9354;50.194;7.690;2022-10-31T12:01:54;15.90;99.90
18450;DHT22;9354;50.194;7.690;2022-10-31T12:04:35;15.90;99.90
18450;DHT22;9354;50.194;7.690;2022-10-31T12:07:04;16.00;99.90
18450;DHT22;9354;50.194;7.690;2022-10-31T12:09:34;16.00;99.90
18450;DHT22;9354;50.194;7.690;2022-10-31T12:12:26;16.00;99.90
18450;DHT22;9354;50.194;7.690;2022-10-31T12:15:07;16.00;99.90
18450;DHT22;9354;50.194;7.690;2022-10-31T12:17:46;16.00;99.90
18450;DHT22;9354;50.194;7.690;2022-10-31T12:20:22;16.00;99.90
18450;DHT22;9354;50.194;7.690;2022-10-31T12:22:58;16.10;99.90
18450;DHT22;9354;50.194;7.690;2022-10-31T12:25:38;16.10;99.90
18450;DHT22;9354;50.194;7.690;2022-10-31T12:28:29;16.20;99.90
18450;DHT22;9354;50.194;7.690;2022-10-31T12:31:12;16.20;99.90
18450;DHT22;9354;50.194;7.690;2022-10-31T12:34:07;16.20;99.90
18450;DHT22;9354;50.194;7.690;2022-10-31T12:36:48;16.20;99.90
18450;DHT22;9354;50.194;7.690;2022-10-31T12:39:24;16.20;99.90
18450;DHT22;9354;50.194;7.690;2022-10-31T12:41:55;16.20;99.90
18450;DHT22;9354;50.194;7.690;2022-10-31T12:44:51;16.30;99.90
18450;DHT22;9354;50.194;7.690;2022-10-31T12:47:37;16.30;99.90
18450;DHT22;9354;50.194;7.690;2022-10-31T12:50:26;16.40;99.90
18450;DHT22;9354;50.194;7.690;2022-10-31T12:53:04;16.40;99.90
18450;DHT22;9354;50.194;7.690;2022-10-31T12:55:44;16.50;99.90
18450;DHT22;9354;50.194;7.690;2022-10-31T12:58:19;16.50;99.90
18450;DHT22;9354;50.194;7.690;2022-10-31T13:00:57;16.50;99.90
18450;DHT22;9354;50.194;7.690;2022-10-31T13:03:30;16.50;99.90
18450;DHT22;9354;50.194;7.690;2022-10-31T13:06:05;16.60;99.90
18450;DHT22;9354;50.194;7.690;2022-10-31T13:08:40;16.60;99.90
18450;DHT22;9354;50.194;7.690;2022-10-31T13:11:11;16.60;99.90
18450;DHT22;9354;50.194;7.690;2022-10-31T13:13:42;16.70;99.90
18450;DHT22;9354;50.194;7.690;2022-10-31T13:16:15;16.70;99.90
18450;DHT22;9354;50.194;7.690;2022-10-31T13:18:46;16.70;99.90
18450;DHT22;9354;50.194;7.690;2022-10-31T13:21:19;16.80;99.90
18450;DHT22;9354;50.194;7.690;2022-10-31T13:23:50;16.80;99.90
18450;DHT22;9354;50.194;7.690;2022-10-31T13:26:24;16.80;99.90
18450;DHT22;9354;50.194;7.690;2022-10-31T13:28:59;16.80;99.90
18450;DHT22;9354;50.194;7.690;2022-10-31T13:31:30;16.80;99.90
18450;DHT22;9354;50.194;7.690;2022-10-31T13:34:01;16.80;99.90
18450;DHT22;9354;50.194;7.690;2022-10-31T13:36:36;16.70;99.90
18450;DHT22;9354;50.194;7.690;2022-10-31T13:39:14;16.70;99.90
18450;DHT22;9354;50.194;7.690;2022-10-31T13:41:48;16.70;99.90
18450;DHT22;9354;50.194;7.690;2022-10-31T13:44:18;16.60;99.90
18450;DHT22;9354;50.194;7.690;2022-10-31T13:46:47;16.50;99.90
18450;DHT22;9354;50.194;7.690;2022-10-31T13:49:25;16.50;99.90
18450;DHT22;9354;50.194;7.690;2022-10-31T13:52:05;16.50;99.90
18450;DHT22;9354;50.194;7.690;2022-10-31T13:54:34;16.40;99.90
18450;DHT22;9354;50.194;7.690;2022-10-31T13:57:06;16.40;99.90
18450;DHT22;9354;50.194;7.690;2022-10-31T13:59:37;16.30;99.90
18450;DHT22;9354;50.194;7.690;2022-10-31T14:02:14;16.30;99.90
18450;DHT22;9354;50.194;7.690;2022-10-31T14:04:46;16.20;99.90
18450;DHT22;9354;50.194;7.690;2022-10-31T14:07:16;16.20;99.90
18450;DHT22;9354;50.194;7.690;2022-10-31T14:09:53;16.20;99.90
18450;DHT22;9354;50.194;7.690;2022-10-31T14:12:26;16.20;99.90
18450;DHT22;9354;50.194;7.690;2022-10-31T14:14:57;16.20;99.90
18450;DHT22;9354;50.194;7.690;2022-10-31T14:17:28;16.20;99.90
18450;DHT22;9354;50.194;7.690;2022-10-31T14:20:21;16.20;99.90
18450;DHT22;9354;50.194;7.690;2022-10-31T14:22:50;16.20;99.90
18450;DHT22;9354;50.194;7.690;2022-10-31T14:25:38;16.20;99.90
18450;DHT22;9354;50.194;7.690;2022-10-31T14:28:20;16.20;99.90
18450;DHT22;9354;50.194;7.690;2022-10-31T14:30:52;16.20;99.90
18450;DHT22;9354;50.194;7.690;2022-10-31T14:33:20;16.20;99.90
18450;DHT22;9354;50.194;7.690;2022-10-31T14:35:56;16.20;99.90
18450;DHT22;9354;50.194;7.690;2022-10-31T14:38:35;16.20;99.90
18450;DHT22;9354;50.194;7.690;2022-10-31T14:41:21;16.10;99.90
18450;DHT22;9354;50.194;7.690;2022-10-31T14:47:19;16.20;99.90
18450;DHT22;9354;50.194;7.690;2022-10-31T14:50:17;16.20;99.90
18450;DHT22;9354;50.194;7.690;2022-10-31T14:52:48;16.20;99.90
18450;DHT22;9354;50.194;7.690;2022-10-31T14:55:18;16.20;99.90
18450;DHT22;9354;50.194;7.690;2022-10-31T14:57:50;16.20;99.90
18450;DHT22;9354;50.194;7.690;2022-10-31T15:00:21;16.20;99.90
18450;DHT22;9354;50.194;7.690;2022-10-31T15:02:58;16.20;99.90
18450;DHT22;9354;50.194;7.690;2022-10-31T15:05:30;16.10;99.90
18450;DHT22;9354;50.194;7.690;2022-10-31T15:07:59;16.10;99.90
18450;DHT22;9354;50.194;7.690;2022-10-31T15:10:29;16.20;99.90
18450;DHT22;9354;50.194;7.690;2022-10-31T15:13:09;16.10;99.90
18450;DHT22;9354;50.194;7.690;2022-10-31T15:15:38;16.10;99.90
18450;DHT22;9354;50.194;7.690;2022-10-31T15:18:07;16.10;99.90
18450;DHT22;9354;50.194;7.690;2022-10-31T15:20:44;16.10;99.90
18450;DHT22;9354;50.194;7.690;2022-10-31T15:23:16;16.00;99.90
18450;DHT22;9354;50.194;7.690;2022-10-31T15:25:46;15.90;99.90
18450;DHT22;9354;50.194;7.690;2022-10-31T15:28:14;15.80;99.90
18450;DHT22;9354;50.194;7.690;2022-10-31T15:30:50;15.70;99.90
18450;DHT22;9354;50.194;7.690;2022-10-31T15:33:20;15.70;99.90
18450;DHT22;9354;50.194;7.690;2022-10-31T15:35:56;15.70;99.90
18450;DHT22;9354;50.194;7.690;2022-10-31T15:38:24;15.70;99.90
18450;DHT22;9354;50.194;7.690;2022-10-31T15:40:56;15.70;99.90
18450;DHT22;9354;50.194;7.690;2022-10-31T15:43:25;15.70;99.90
18450;DHT22;9354;50.194;7.690;2022-10-31T15:46:00;15.60;99.90
18450;DHT22;9354;50.194;7.690;2022-10-31T15:48:29;15.60;99.90
18450;DHT22;9354;50.194;7.690;2022-10-31T15:50:58;15.60;99.90
18450;DHT22;9354;50.194;7.690;2022-10-31T15:53:27;15.70;99.90
18450;DHT22;9354;50.194;7.690;2022-10-31T15:56:00;15.70;99.90
18450;DHT22;9354;50.194;7.690;2022-10-31T15:58:30;15.70;99.90
18450;DHT22;9354;50.194;7.690;2022-10-31T16:01:02;15.70;99.90
18450;DHT22;9354;50.194;7.690;2022-10-31T16:03:31;15.70;99.90
18450;DHT22;9354;50.194;7.690;2022-10-31T16:06:00;15.70;99.90
18450;DHT22;9354;50.194;7.690;2022-10-31T16:08:34;15.50;99.90
18450;DHT22;9354;50.194;7.690;2022-10-31T16:11:17;15.50;99.90
18450;DHT22;9354;50.194;7.690;2022-10-31T16:13:57;15.40;99.90
18450;DHT22;9354;50.194;7.690;2022-10-31T16:16:25;15.30;99.90